sensor_id;sensor_type;location;lat;lon;timestamp;temperature;humidity
81902;DHT22;71369;50.796;3.290;2023-09-07T00:00:48;17.90;88.90
81902;DHT22;71369;50.796;3.290;2023-09-07T00:03:14;18.00;88.70
81902;DHT22;71369;50.796;3.290;2023-09-07T00:05:41;17.90;89.00
81902;DHT22;71369;50.796;3.290;2023-09-07T00:08:06;17.90;88.60
81902;DHT22;71369;50.796;3.290;2023-09-07T00:10:33;17.90;88.60
81902;DHT22;71369;50.796;3.290;2023-09-07T00:13:03;17.90;88.80
81902;DHT22;71369;50.796;3.290;2023-09-07T00:15:29;17.90;88.90
81902;DHT22;71369;50.796;3.290;2023-09-07T00:17:56;17.90;88.90
81902;DHT22;71369;50.796;3.290;2023-09-07T00:20:22;17.90;89.10
81902;DHT22;71369;50.796;3.290;2023-09-07T00:22:49;17.80;89.10
81902;DHT22;71369;50.796;3.290;2023-09-07T00:25:14;17.80;89.10
81902;DHT22;71369;50.796;3.290;2023-09-07T00:27:40;17.80;89.40
81902;DHT22;71369;50.796;3.290;2023-09-07T00:30:06;17.80;89.00
81902;DHT22;71369;50.796;3.290;2023-09-07T00:32:36;17.80;89.20
81902;DHT22;71369;50.796;3.290;2023-09-07T00:35:02;17.70;89.60
81902;DHT22;71369;50.796;3.290;2023-09-07T00:37:28;17.70;89.60
81902;DHT22;71369;50.796;3.290;2023-09-07T00:39:53;17.70;89.40
81902;DHT22;71369;50.796;3.290;2023-09-07T00:42:19;17.60;89.40
81902;DHT22;71369;50.796;3.290;2023-09-07T00:44:45;17.60;89.60
81902;DHT22;71369;50.796;3.290;2023-09-07T00:47:10;17.60;90.00
81902;DHT22;71369;50.796;3.290;2023-09-07T00:49:37;17.50;90.20
81902;DHT22;71369;50.796;3.290;2023-09-07T00:52:04;17.50;90.30
81902;DHT22;71369;50.796;3.290;2023-09-07T00:54:30;17.50;90.50
81902;DHT22;71369;50.796;3.290;2023-09-07T00:56:58;17.40;90.60
81902;DHT22;71369;50.796;3.290;2023-09-07T00:59:27;17.40;90.90
81902;DHT22;71369;50.796;3.290;2023-09-07T01:01:52;17.40;90.10
81902;DHT22;71369;50.796;3.290;2023-09-07T01:04:18;17.40;89.80
81902;DHT22;71369;50.796;3.290;2023-09-07T01:06:47;17.30;89.90
81902;DHT22;71369;50.796;3.290;2023-09-07T01:09:21;17.30;89.80
81902;DHT22;71369;50.796;3.290;2023-09-07T01:11:49;17.20;90.30
81902;DHT22;71369;50.796;3.290;2023-09-07T01:14:15;17.20;90.20
81902;DHT22;71369;50.796;3.290;2023-09-07T01:16:41;17.20;90.10
81902;DHT22;71369;50.796;3.290;2023-09-07T01:19:07;17.30;89.90
81902;DHT22;71369;50.796;3.290;2023-09-07T01:21:37;17.30;89.80
81902;DHT22;71369;50.796;3.290;2023-09-07T01:24:06;17.30;90.00
81902;DHT22;71369;50.796;3.290;2023-09-07T01:26:32;17.30;90.10
81902;DHT22;71369;50.796;3.290;2023-09-07T01:28:58;17.30;90.20
81902;DHT22;71369;50.796;3.290;2023-09-07T01:31:23;17.30;90.10
81902;DHT22;71369;50.796;3.290;2023-09-07T01:33:51;17.30;90.20
81902;DHT22;71369;50.796;3.290;2023-09-07T01:36:17;17.30;90.20
81902;DHT22;71369;50.796;3.290;2023-09-07T01:38:42;17.30;90.10
81902;DHT22;71369;50.796;3.290;2023-09-07T01:41:08;17.30;90.00
81902;DHT22;71369;50.796;3.290;2023-09-07T01:43:34;17.30;90.20
81902;DHT22;71369;50.796;3.290;2023-09-07T01:46:00;17.30;90.20
81902;DHT22;71369;50.796;3.290;2023-09-07T01:48:27;17.30;90.20
81902;DHT22;71369;50.796;3.290;2023-09-07T01:50:53;17.30;90.20
81902;DHT22;71369;50.796;3.290;2023-09-07T01:53:19;17.30;90.00
81902;DHT22;71369;50.796;3.290;2023-09-07T01:55:45;17.20;90.00
81902;DHT22;71369;50.796;3.290;2023-09-07T01:58:11;17.20;89.80
81902;DHT22;71369;50.796;3.290;2023-09-07T02:00:37;17.20;90.00
81902;DHT22;71369;50.796;3.290;2023-09-07T02:03:05;17.10;90.00
81902;DHT22;71369;50.796;3.290;2023-09-07T02:05:30;17.10;90.10
81902;DHT22;71369;50.796;3.290;2023-09-07T02:07:58;17.10;90.10
81902;DHT22;71369;50.796;3.290;2023-09-07T02:10:23;17.10;90.20
81902;DHT22;71369;50.796;3.290;2023-09-07T02:12:49;17.10;90.20
81902;DHT22;71369;50.796;3.290;2023-09-07T02:15:15;17.10;90.20
81902;DHT22;71369;50.796;3.290;2023-09-07T02:17:40;17.00;90.80
81902;DHT22;71369;50.796;3.290;2023-09-07T02:20:11;17.00;90.30
81902;DHT22;71369;50.796;3.290;2023-09-07T02:22:37;16.90;90.00
81902;DHT22;71369;50.796;3.290;2023-09-07T02:25:03;16.90;89.90
81902;DHT22;71369;50.796;3.290;2023-09-07T02:27:35;16.90;90.00
81902;DHT22;71369;50.796;3.290;2023-09-07T02:30:03;16.80;89.80
81902;DHT22;71369;50.796;3.290;2023-09-07T02:32:30;16.80;89.80
81902;DHT22;71369;50.796;3.290;2023-09-07T02:34:55;16.80;89.20
81902;DHT22;71369;50.796;3.290;2023-09-07T02:37:21;16.70;89.90
81902;DHT22;71369;50.796;3.290;2023-09-07T02:39:47;16.60;90.00
81902;DHT22;71369;50.796;3.290;2023-09-07T02:42:12;16.60;89.60
81902;DHT22;71369;50.796;3.290;2023-09-07T02:44:38;16.60;89.60
81902;DHT22;71369;50.796;3.290;2023-09-07T02:47:04;16.50;89.80
81902;DHT22;71369;50.796;3.290;2023-09-07T02:49:30;16.50;89.80
81902;DHT22;71369;50.796;3.290;2023-09-07T02:51:55;16.50;89.80
81902;DHT22;71369;50.796;3.290;2023-09-07T02:54:22;16.40;90.00
81902;DHT22;71369;50.796;3.290;2023-09-07T02:56:48;16.40;90.10
81902;DHT22;71369;50.796;3.290;2023-09-07T02:59:14;16.40;90.10
81902;DHT22;71369;50.796;3.290;2023-09-07T03:01:39;16.40;90.30
81902;DHT22;71369;50.796;3.290;2023-09-07T03:04:05;16.40;90.40
81902;DHT22;71369;50.796;3.290;2023-09-07T03:06:34;16.40;90.40
81902;DHT22;71369;50.796;3.290;2023-09-07T03:08:59;16.40;90.30
81902;DHT22;71369;50.796;3.290;2023-09-07T03:11:25;16.40;90.30
81902;DHT22;71369;50.796;3.290;2023-09-07T03:13:51;16.40;90.40
81902;DHT22;71369;50.796;3.290;2023-09-07T03:16:18;16.30;90.30
81902;DHT22;71369;50.796;3.290;2023-09-07T03:18:43;16.30;90.50
81902;DHT22;71369;50.796;3.290;2023-09-07T03:21:10;16.30;90.40
81902;DHT22;71369;50.796;3.290;2023-09-07T03:23:36;16.30;90.20
81902;DHT22;71369;50.796;3.290;2023-09-07T03:26:01;16.20;90.70
81902;DHT22;71369;50.796;3.290;2023-09-07T03:28:27;16.20;90.20
81902;DHT22;71369;50.796;3.290;2023-09-07T03:30:56;16.20;90.20
81902;DHT22;71369;50.796;3.290;2023-09-07T03:33:22;16.20;90.20
81902;DHT22;71369;50.796;3.290;2023-09-07T03:35:48;16.20;90.10
81902;DHT22;71369;50.796;3.290;2023-09-07T03:38:14;16.10;90.30
81902;DHT22;71369;50.796;3.290;2023-09-07T03:40:39;16.20;90.50
81902;DHT22;71369;50.796;3.290;2023-09-07T03:43:05;16.10;90.50
81902;DHT22;71369;50.796;3.290;2023-09-07T03:45:30;16.10;90.40
81902;DHT22;71369;50.796;3.290;2023-09-07T03:47:56;16.10;90.40
81902;DHT22;71369;50.796;3.290;2023-09-07T03:50:22;16.10;90.10
81902;DHT22;71369;50.796;3.290;2023-09-07T03:52:47;16.00;90.10
81902;DHT22;71369;50.796;3.290;2023-09-07T03:55:14;16.00;90.10
81902;DHT22;71369;50.796;3.290;2023-09-07T03:57:39;16.00;90.20
81902;DHT22;71369;50.796;3.290;2023-09-07T04:00:06;16.00;90.30
81902;DHT22;71369;50.796;3.290;2023-09-07T04:02:33;16.00;90.20
81902;DHT22;71369;50.796;3.290;2023-09-07T04:04:59;16.00;90.30
81902;DHT22;71369;50.796;3.290;2023-09-07T04:07:27;15.90;90.30
81902;DHT22;71369;50.796;3.290;2023-09-07T04:09:55;15.90;90.50
81902;DHT22;71369;50.796;3.290;2023-09-07T04:12:21;16.00;90.60
81902;DHT22;71369;50.796;3.290;2023-09-07T04:14:46;15.90;90.40
81902;DHT22;71369;50.796;3.290;2023-09-07T04:17:12;15.90;90.40
81902;DHT22;71369;50.796;3.290;2023-09-07T04:19:37;15.90;90.40
81902;DHT22;71369;50.796;3.290;2023-09-07T04:22:03;15.90;90.40
81902;DHT22;71369;50.796;3.290;2023-09-07T04:24:29;15.80;90.30
81902;DHT22;71369;50.796;3.290;2023-09-07T04:26:59;15.80;90.20
81902;DHT22;71369;50.796;3.290;2023-09-07T04:29:26;15.80;90.30
81902;DHT22;71369;50.796;3.290;2023-09-07T04:31:52;15.70;90.10
81902;DHT22;71369;50.796;3.290;2023-09-07T04:34:17;15.70;90.30
81902;DHT22;71369;50.796;3.290;2023-09-07T04:36:43;15.70;90.60
81902;DHT22;71369;50.796;3.290;2023-09-07T04:39:10;15.70;90.70
81902;DHT22;71369;50.796;3.290;2023-09-07T04:41:36;15.70;90.80
81902;DHT22;71369;50.796;3.290;2023-09-07T04:44:01;15.70;90.90
81902;DHT22;71369;50.796;3.290;2023-09-07T04:46:27;15.70;91.10
81902;DHT22;71369;50.796;3.290;2023-09-07T04:48:53;15.60;91.10
81902;DHT22;71369;50.796;3.290;2023-09-07T04:51:18;15.60;91.10
81902;DHT22;71369;50.796;3.290;2023-09-07T04:53:46;15.60;91.10
81902;DHT22;71369;50.796;3.290;2023-09-07T04:56:12;15.60;91.30
81902;DHT22;71369;50.796;3.290;2023-09-07T04:58:39;15.60;91.20
81902;DHT22;71369;50.796;3.290;2023-09-07T05:01:09;15.60;91.10
81902;DHT22;71369;50.796;3.290;2023-09-07T05:03:35;15.60;90.90
81902;DHT22;71369;50.796;3.290;2023-09-07T05:06:02;15.60;90.90
81902;DHT22;71369;50.796;3.290;2023-09-07T05:08:31;15.60;90.70
81902;DHT22;71369;50.796;3.290;2023-09-07T05:11:01;15.50;90.90
81902;DHT22;71369;50.796;3.290;2023-09-07T05:13:28;15.60;91.00
81902;DHT22;71369;50.796;3.290;2023-09-07T05:15:55;15.60;91.20
81902;DHT22;71369;50.796;3.290;2023-09-07T05:18:21;15.50;91.10
81902;DHT22;71369;50.796;3.290;2023-09-07T05:20:48;15.50;91.20
81902;DHT22;71369;50.796;3.290;2023-09-07T05:23:16;15.50;91.20
81902;DHT22;71369;50.796;3.290;2023-09-07T05:25:50;15.60;91.20
81902;DHT22;71369;50.796;3.290;2023-09-07T05:28:20;15.60;91.10
81902;DHT22;71369;50.796;3.290;2023-09-07T05:30:47;15.60;91.20
81902;DHT22;71369;50.796;3.290;2023-09-07T05:33:14;15.60;91.20
81902;DHT22;71369;50.796;3.290;2023-09-07T05:35:40;15.60;91.30
81902;DHT22;71369;50.796;3.290;2023-09-07T05:38:07;15.60;91.50
81902;DHT22;71369;50.796;3.290;2023-09-07T05:40:37;15.60;91.60
81902;DHT22;71369;50.796;3.290;2023-09-07T05:43:03;15.60;92.00
81902;DHT22;71369;50.796;3.290;2023-09-07T05:45:30;15.70;91.40
81902;DHT22;71369;50.796;3.290;2023-09-07T05:47:57;15.70;91.30
81902;DHT22;71369;50.796;3.290;2023-09-07T05:50:23;15.80;91.30
81902;DHT22;71369;50.796;3.290;2023-09-07T05:52:48;15.80;91.40
81902;DHT22;71369;50.796;3.290;2023-09-07T05:55:14;15.90;91.50
81902;DHT22;71369;50.796;3.290;2023-09-07T05:57:40;16.00;91.70
81902;DHT22;71369;50.796;3.290;2023-09-07T06:00:06;16.00;91.70
81902;DHT22;71369;50.796;3.290;2023-09-07T06:02:32;16.20;92.10
81902;DHT22;71369;50.796;3.290;2023-09-07T06:04:59;16.30;92.30
81902;DHT22;71369;50.796;3.290;2023-09-07T06:10:48;16.70;92.50
81902;DHT22;71369;50.796;3.290;2023-09-07T06:13:13;17.00;92.60
81902;DHT22;71369;50.796;3.290;2023-09-07T06:15:39;17.70;93.60
81902;DHT22;71369;50.796;3.290;2023-09-07T06:18:05;18.40;94.10
81902;DHT22;71369;50.796;3.290;2023-09-07T06:20:32;19.00;93.50
81902;DHT22;71369;50.796;3.290;2023-09-07T06:22:57;19.60;92.40
81902;DHT22;71369;50.796;3.290;2023-09-07T06:25:23;20.30;91.80
81902;DHT22;71369;50.796;3.290;2023-09-07T06:27:49;20.90;88.40
81902;DHT22;71369;50.796;3.290;2023-09-07T06:30:15;21.50;86.90
81902;DHT22;71369;50.796;3.290;2023-09-07T06:32:40;22.00;85.10
81902;DHT22;71369;50.796;3.290;2023-09-07T06:35:08;22.70;83.20
81902;DHT22;71369;50.796;3.290;2023-09-07T06:37:33;23.40;80.00
81902;DHT22;71369;50.796;3.290;2023-09-07T06:39:59;24.10;76.70
81902;DHT22;71369;50.796;3.290;2023-09-07T06:42:25;24.70;73.40
81902;DHT22;71369;50.796;3.290;2023-09-07T06:44:51;25.30;69.10
81902;DHT22;71369;50.796;3.290;2023-09-07T06:47:17;25.90;65.90
81902;DHT22;71369;50.796;3.290;2023-09-07T06:49:43;26.60;64.70
81902;DHT22;71369;50.796;3.290;2023-09-07T06:52:09;27.20;60.40
81902;DHT22;71369;50.796;3.290;2023-09-07T06:54:34;27.80;57.50
81902;DHT22;71369;50.796;3.290;2023-09-07T06:57:00;28.20;55.30
81902;DHT22;71369;50.796;3.290;2023-09-07T06:59:26;28.50;51.90
81902;DHT22;71369;50.796;3.290;2023-09-07T07:01:52;28.90;48.90
81902;DHT22;71369;50.796;3.290;2023-09-07T07:04:17;29.20;48.20
81902;DHT22;71369;50.796;3.290;2023-09-07T07:06:43;29.20;48.70
81902;DHT22;71369;50.796;3.290;2023-09-07T07:09:10;29.60;48.20
81902;DHT22;71369;50.796;3.290;2023-09-07T07:11:36;29.80;46.90
81902;DHT22;71369;50.796;3.290;2023-09-07T07:14:04;29.90;45.80
81902;DHT22;71369;50.796;3.290;2023-09-07T07:16:30;30.30;45.60
81902;DHT22;71369;50.796;3.290;2023-09-07T07:18:56;31.20;44.80
81902;DHT22;71369;50.796;3.290;2023-09-07T07:21:21;32.00;43.10
81902;DHT22;71369;50.796;3.290;2023-09-07T07:23:47;32.80;41.70
81902;DHT22;71369;50.796;3.290;2023-09-07T07:26:13;33.00;39.70
81902;DHT22;71369;50.796;3.290;2023-09-07T07:28:39;33.40;38.40
81902;DHT22;71369;50.796;3.290;2023-09-07T07:31:08;33.40;37.40
81902;DHT22;71369;50.796;3.290;2023-09-07T07:33:37;33.30;37.00
81902;DHT22;71369;50.796;3.290;2023-09-07T07:36:04;33.00;37.70
81902;DHT22;71369;50.796;3.290;2023-09-07T07:38:31;32.20;38.50
81902;DHT22;71369;50.796;3.290;2023-09-07T07:40:57;32.10;41.10
81902;DHT22;71369;50.796;3.290;2023-09-07T07:43:24;32.60;40.60
81902;DHT22;71369;50.796;3.290;2023-09-07T07:45:52;33.30;36.60
81902;DHT22;71369;50.796;3.290;2023-09-07T07:48:17;33.70;36.10
81902;DHT22;71369;50.796;3.290;2023-09-07T07:50:43;33.80;36.00
81902;DHT22;71369;50.796;3.290;2023-09-07T07:53:09;33.70;35.90
81902;DHT22;71369;50.796;3.290;2023-09-07T07:55:38;34.50;34.10
81902;DHT22;71369;50.796;3.290;2023-09-07T07:58:08;35.20;34.40
81902;DHT22;71369;50.796;3.290;2023-09-07T08:00:38;35.40;34.10
81902;DHT22;71369;50.796;3.290;2023-09-07T08:03:04;35.50;31.60
81902;DHT22;71369;50.796;3.290;2023-09-07T08:05:35;35.80;33.20
81902;DHT22;71369;50.796;3.290;2023-09-07T08:08:01;35.80;32.10
81902;DHT22;71369;50.796;3.290;2023-09-07T08:10:27;35.70;32.60
81902;DHT22;71369;50.796;3.290;2023-09-07T08:12:57;36.10;32.80
81902;DHT22;71369;50.796;3.290;2023-09-07T08:15:23;36.70;32.10
81902;DHT22;71369;50.796;3.290;2023-09-07T08:17:51;36.80;31.70
81902;DHT22;71369;50.796;3.290;2023-09-07T08:20:16;36.70;29.70
81902;DHT22;71369;50.796;3.290;2023-09-07T08:22:43;36.20;29.70
81902;DHT22;71369;50.796;3.290;2023-09-07T08:25:10;36.20;30.00
81902;DHT22;71369;50.796;3.290;2023-09-07T08:27:39;35.90;30.00
81902;DHT22;71369;50.796;3.290;2023-09-07T08:30:05;36.10;30.30
81902;DHT22;71369;50.796;3.290;2023-09-07T08:32:32;36.60;29.20
81902;DHT22;71369;50.796;3.290;2023-09-07T08:34:57;36.40;29.20
81902;DHT22;71369;50.796;3.290;2023-09-07T08:37:26;36.50;29.50
81902;DHT22;71369;50.796;3.290;2023-09-07T08:39:54;36.50;30.00
81902;DHT22;71369;50.796;3.290;2023-09-07T08:42:20;37.10;29.00
81902;DHT22;71369;50.796;3.290;2023-09-07T08:44:47;37.10;28.90
81902;DHT22;71369;50.796;3.290;2023-09-07T08:47:15;37.40;28.10
81902;DHT22;71369;50.796;3.290;2023-09-07T08:49:42;37.70;28.10
81902;DHT22;71369;50.796;3.290;2023-09-07T08:52:10;38.30;27.90
81902;DHT22;71369;50.796;3.290;2023-09-07T08:54:36;38.40;28.30
81902;DHT22;71369;50.796;3.290;2023-09-07T08:57:03;38.70;26.70
81902;DHT22;71369;50.796;3.290;2023-09-07T08:59:31;39.20;26.70
81902;DHT22;71369;50.796;3.290;2023-09-07T09:01:58;38.70;26.80
81902;DHT22;71369;50.796;3.290;2023-09-07T09:04:27;38.70;27.00
81902;DHT22;71369;50.796;3.290;2023-09-07T09:06:53;39.10;26.60
81902;DHT22;71369;50.796;3.290;2023-09-07T09:09:23;39.90;26.60
81902;DHT22;71369;50.796;3.290;2023-09-07T09:11:52;40.50;25.30
81902;DHT22;71369;50.796;3.290;2023-09-07T09:14:19;40.40;25.00
81902;DHT22;71369;50.796;3.290;2023-09-07T09:16:51;40.60;24.20
81902;DHT22;71369;50.796;3.290;2023-09-07T09:19:17;41.00;24.40
81902;DHT22;71369;50.796;3.290;2023-09-07T09:21:46;40.40;24.30
81902;DHT22;71369;50.796;3.290;2023-09-07T09:24:12;40.10;24.30
81902;DHT22;71369;50.796;3.290;2023-09-07T09:26:38;40.40;24.80
81902;DHT22;71369;50.796;3.290;2023-09-07T09:29:04;40.90;25.50
81902;DHT22;71369;50.796;3.290;2023-09-07T09:31:30;41.70;24.60
81902;DHT22;71369;50.796;3.290;2023-09-07T09:33:56;42.10;23.10
81902;DHT22;71369;50.796;3.290;2023-09-07T09:36:22;42.00;22.40
81902;DHT22;71369;50.796;3.290;2023-09-07T09:38:49;41.30;22.70
81902;DHT22;71369;50.796;3.290;2023-09-07T09:41:17;41.00;24.20
81902;DHT22;71369;50.796;3.290;2023-09-07T09:43:43;41.50;23.40
81902;DHT22;71369;50.796;3.290;2023-09-07T09:46:12;41.70;23.40
81902;DHT22;71369;50.796;3.290;2023-09-07T09:48:40;41.50;22.60
81902;DHT22;71369;50.796;3.290;2023-09-07T09:51:10;41.70;23.70
81902;DHT22;71369;50.796;3.290;2023-09-07T09:53:36;42.00;24.00
81902;DHT22;71369;50.796;3.290;2023-09-07T09:56:02;42.10;22.50
81902;DHT22;71369;50.796;3.290;2023-09-07T09:58:28;42.70;23.20
81902;DHT22;71369;50.796;3.290;2023-09-07T10:00:56;42.60;22.30
81902;DHT22;71369;50.796;3.290;2023-09-07T10:03:27;43.00;22.50
81902;DHT22;71369;50.796;3.290;2023-09-07T10:05:54;42.40;22.40
81902;DHT22;71369;50.796;3.290;2023-09-07T10:08:20;41.90;23.00
81902;DHT22;71369;50.796;3.290;2023-09-07T10:10:49;42.20;24.40
81902;DHT22;71369;50.796;3.290;2023-09-07T10:13:30;42.00;22.70
81902;DHT22;71369;50.796;3.290;2023-09-07T10:16:06;41.70;23.90
81902;DHT22;71369;50.796;3.290;2023-09-07T10:18:37;42.10;24.00
81902;DHT22;71369;50.796;3.290;2023-09-07T10:21:04;42.60;23.40
81902;DHT22;71369;50.796;3.290;2023-09-07T10:26:03;42.70;22.60
81902;DHT22;71369;50.796;3.290;2023-09-07T10:28:32;43.60;23.10
81902;DHT22;71369;50.796;3.290;2023-09-07T10:31:00;44.30;21.00
81902;DHT22;71369;50.796;3.290;2023-09-07T10:33:26;43.30;21.30
81902;DHT22;71369;50.796;3.290;2023-09-07T10:35:52;42.60;22.60
81902;DHT22;71369;50.796;3.290;2023-09-07T10:38:19;42.40;22.40
81902;DHT22;71369;50.796;3.290;2023-09-07T10:40:45;42.20;21.90
81902;DHT22;71369;50.796;3.290;2023-09-07T10:43:11;42.70;22.30
81902;DHT22;71369;50.796;3.290;2023-09-07T10:45:37;43.60;21.20
81902;DHT22;71369;50.796;3.290;2023-09-07T10:48:03;43.60;21.20
81902;DHT22;71369;50.796;3.290;2023-09-07T10:50:41;43.30;21.50
81902;DHT22;71369;50.796;3.290;2023-09-07T10:53:07;43.10;21.10
81902;DHT22;71369;50.796;3.290;2023-09-07T10:55:39;42.80;21.90
81902;DHT22;71369;50.796;3.290;2023-09-07T10:58:06;43.10;22.40
81902;DHT22;71369;50.796;3.290;2023-09-07T11:00:32;43.50;21.70
81902;DHT22;71369;50.796;3.290;2023-09-07T11:02:58;43.20;21.20
81902;DHT22;71369;50.796;3.290;2023-09-07T11:05:24;43.20;22.00
81902;DHT22;71369;50.796;3.290;2023-09-07T11:07:50;43.20;22.00
81902;DHT22;71369;50.796;3.290;2023-09-07T11:10:16;43.10;21.60
81902;DHT22;71369;50.796;3.290;2023-09-07T11:12:42;42.20;23.30
81902;DHT22;71369;50.796;3.290;2023-09-07T11:15:11;41.80;22.80
81902;DHT22;71369;50.796;3.290;2023-09-07T11:17:38;41.60;22.70
81902;DHT22;71369;50.796;3.290;2023-09-07T11:20:06;41.60;23.60
81902;DHT22;71369;50.796;3.290;2023-09-07T11:22:33;41.30;23.40
81902;DHT22;71369;50.796;3.290;2023-09-07T11:25:02;41.60;23.60
81902;DHT22;71369;50.796;3.290;2023-09-07T11:27:30;41.10;23.60
81902;DHT22;71369;50.796;3.290;2023-09-07T11:29:56;41.10;23.40
81902;DHT22;71369;50.796;3.290;2023-09-07T11:32:23;41.30;23.40
81902;DHT22;71369;50.796;3.290;2023-09-07T11:34:52;41.20;23.00
81902;DHT22;71369;50.796;3.290;2023-09-07T11:37:23;41.30;23.10
81902;DHT22;71369;50.796;3.290;2023-09-07T11:39:50;40.90;23.70
81902;DHT22;71369;50.796;3.290;2023-09-07T11:42:16;41.20;23.00
81902;DHT22;71369;50.796;3.290;2023-09-07T11:44:41;41.80;23.60
81902;DHT22;71369;50.796;3.290;2023-09-07T11:47:07;42.30;23.00
81902;DHT22;71369;50.796;3.290;2023-09-07T11:49:33;42.40;22.00
81902;DHT22;71369;50.796;3.290;2023-09-07T11:51:59;42.30;22.80
81902;DHT22;71369;50.796;3.290;2023-09-07T11:54:25;43.00;23.40
81902;DHT22;71369;50.796;3.290;2023-09-07T11:56:50;43.60;22.00
81902;DHT22;71369;50.796;3.290;2023-09-07T11:59:16;44.00;21.20
81902;DHT22;71369;50.796;3.290;2023-09-07T12:01:45;43.30;21.40
81902;DHT22;71369;50.796;3.290;2023-09-07T12:04:10;43.10;21.50
81902;DHT22;71369;50.796;3.290;2023-09-07T12:06:36;42.10;22.80
81902;DHT22;71369;50.796;3.290;2023-09-07T12:09:04;42.00;23.20
81902;DHT22;71369;50.796;3.290;2023-09-07T12:11:32;42.20;23.30
81902;DHT22;71369;50.796;3.290;2023-09-07T12:13:58;42.20;23.40
81902;DHT22;71369;50.796;3.290;2023-09-07T12:16:25;42.40;23.60
81902;DHT22;71369;50.796;3.290;2023-09-07T12:18:51;41.60;22.30
81902;DHT22;71369;50.796;3.290;2023-09-07T12:21:17;41.50;23.30
81902;DHT22;71369;50.796;3.290;2023-09-07T12:23:43;41.80;24.00
81902;DHT22;71369;50.796;3.290;2023-09-07T12:26:09;41.80;23.10
81902;DHT22;71369;50.796;3.290;2023-09-07T12:28:34;42.10;23.10
81902;DHT22;71369;50.796;3.290;2023-09-07T12:31:01;42.50;23.20
81902;DHT22;71369;50.796;3.290;2023-09-07T12:33:28;43.20;22.10
81902;DHT22;71369;50.796;3.290;2023-09-07T12:35:55;42.90;21.50
81902;DHT22;71369;50.796;3.290;2023-09-07T12:38:21;42.30;23.00
81902;DHT22;71369;50.796;3.290;2023-09-07T12:40:52;42.00;23.20
81902;DHT22;71369;50.796;3.290;2023-09-07T12:43:18;41.90;22.70
81902;DHT22;71369;50.796;3.290;2023-09-07T12:45:45;41.50;23.00
81902;DHT22;71369;50.796;3.290;2023-09-07T12:48:11;41.30;24.30
81902;DHT22;71369;50.796;3.290;2023-09-07T12:50:37;41.90;23.60
81902;DHT22;71369;50.796;3.290;2023-09-07T12:53:04;41.60;23.00
81902;DHT22;71369;50.796;3.290;2023-09-07T12:55:30;41.60;24.00
81902;DHT22;71369;50.796;3.290;2023-09-07T12:57:56;42.00;24.10
81902;DHT22;71369;50.796;3.290;2023-09-07T13:00:22;42.10;23.10
81902;DHT22;71369;50.796;3.290;2023-09-07T13:02:47;42.80;23.30
81902;DHT22;71369;50.796;3.290;2023-09-07T13:05:13;43.40;23.10
81902;DHT22;71369;50.796;3.290;2023-09-07T13:07:39;42.30;22.80
81902;DHT22;71369;50.796;3.290;2023-09-07T13:10:06;42.80;23.50
81902;DHT22;71369;50.796;3.290;2023-09-07T13:12:35;43.00;22.70
81902;DHT22;71369;50.796;3.290;2023-09-07T13:15:01;42.80;21.80
81902;DHT22;71369;50.796;3.290;2023-09-07T13:17:28;42.40;22.00
81902;DHT22;71369;50.796;3.290;2023-09-07T13:19:53;42.80;22.10
81902;DHT22;71369;50.796;3.290;2023-09-07T13:22:19;43.00;23.00
81902;DHT22;71369;50.796;3.290;2023-09-07T13:24:47;43.00;22.60
81902;DHT22;71369;50.796;3.290;2023-09-07T13:27:14;42.10;22.00
81902;DHT22;71369;50.796;3.290;2023-09-07T13:29:41;41.50;23.60
81902;DHT22;71369;50.796;3.290;2023-09-07T13:32:07;41.30;23.90
81902;DHT22;71369;50.796;3.290;2023-09-07T13:34:33;41.80;22.10
81902;DHT22;71369;50.796;3.290;2023-09-07T13:36:58;40.90;24.90
81902;DHT22;71369;50.796;3.290;2023-09-07T13:39:24;41.00;23.70
81902;DHT22;71369;50.796;3.290;2023-09-07T13:41:50;40.90;24.20
81902;DHT22;71369;50.796;3.290;2023-09-07T13:44:16;41.00;23.90
81902;DHT22;71369;50.796;3.290;2023-09-07T13:46:46;40.60;24.90
81902;DHT22;71369;50.796;3.290;2023-09-07T13:49:12;40.10;25.20
81902;DHT22;71369;50.796;3.290;2023-09-07T13:55:19;41.10;23.70
81902;DHT22;71369;50.796;3.290;2023-09-07T13:57:45;41.90;23.00
81902;DHT22;71369;50.796;3.290;2023-09-07T14:00:34;41.50;22.60
81902;DHT22;71369;50.796;3.290;2023-09-07T14:02:59;40.50;24.70
81902;DHT22;71369;50.796;3.290;2023-09-07T14:05:25;39.40;24.70
81902;DHT22;71369;50.796;3.290;2023-09-07T14:07:51;38.10;25.80
81902;DHT22;71369;50.796;3.290;2023-09-07T14:10:16;36.60;28.40
81902;DHT22;71369;50.796;3.290;2023-09-07T14:12:43;35.00;30.60
81902;DHT22;71369;50.796;3.290;2023-09-07T14:15:09;34.10;32.90
81902;DHT22;71369;50.796;3.290;2023-09-07T14:17:35;33.20;33.90
81902;DHT22;71369;50.796;3.290;2023-09-07T14:20:04;32.80;35.10
81902;DHT22;71369;50.796;3.290;2023-09-07T14:22:30;32.50;35.20
81902;DHT22;71369;50.796;3.290;2023-09-07T14:25:20;32.10;37.10
81902;DHT22;71369;50.796;3.290;2023-09-07T14:27:46;31.70;37.40
81902;DHT22;71369;50.796;3.290;2023-09-07T14:30:39;31.50;40.20
81902;DHT22;71369;50.796;3.290;2023-09-07T14:33:05;31.40;37.50
81902;DHT22;71369;50.796;3.290;2023-09-07T14:35:31;31.30;38.90
81902;DHT22;71369;50.796;3.290;2023-09-07T14:38:00;31.20;39.50
81902;DHT22;71369;50.796;3.290;2023-09-07T14:40:29;30.90;40.80
81902;DHT22;71369;50.796;3.290;2023-09-07T14:42:55;30.70;41.00
81902;DHT22;71369;50.796;3.290;2023-09-07T14:45:23;30.60;40.40
81902;DHT22;71369;50.796;3.290;2023-09-07T14:47:51;30.50;40.30
81902;DHT22;71369;50.796;3.290;2023-09-07T14:50:17;30.40;40.60
81902;DHT22;71369;50.796;3.290;2023-09-07T14:52:43;30.30;41.90
81902;DHT22;71369;50.796;3.290;2023-09-07T14:55:15;30.30;40.50
81902;DHT22;71369;50.796;3.290;2023-09-07T14:57:40;30.30;42.20
81902;DHT22;71369;50.796;3.290;2023-09-07T15:00:12;30.20;42.80
81902;DHT22;71369;50.796;3.290;2023-09-07T15:02:38;30.20;42.90
81902;DHT22;71369;50.796;3.290;2023-09-07T15:05:04;30.20;42.10
81902;DHT22;71369;50.796;3.290;2023-09-07T15:07:30;30.10;42.20
81902;DHT22;71369;50.796;3.290;2023-09-07T15:09:56;30.10;41.80
81902;DHT22;71369;50.796;3.290;2023-09-07T15:12:22;29.90;44.00
81902;DHT22;71369;50.796;3.290;2023-09-07T15:14:48;29.90;43.40
81902;DHT22;71369;50.796;3.290;2023-09-07T15:17:15;29.90;42.70
81902;DHT22;71369;50.796;3.290;2023-09-07T15:19:42;29.90;42.90
81902;DHT22;71369;50.796;3.290;2023-09-07T15:22:08;29.90;44.10
81902;DHT22;71369;50.796;3.290;2023-09-07T15:24:34;29.80;43.70
81902;DHT22;71369;50.796;3.290;2023-09-07T15:27:10;29.80;45.00
81902;DHT22;71369;50.796;3.290;2023-09-07T15:29:37;29.70;43.60
81902;DHT22;71369;50.796;3.290;2023-09-07T15:32:03;29.80;43.70
81902;DHT22;71369;50.796;3.290;2023-09-07T15:34:32;29.80;44.50
81902;DHT22;71369;50.796;3.290;2023-09-07T15:37:03;29.80;43.30